Time;durP1;ratioP1;P1;durP2;ratioP2;P2;SDS_P1;SDS_P2;PMS_P1;PMS_P2;Temp;Humidity;BMP_temperature;BMP_pressure;BME280_temperature;BME280_humidity;BME280_pressure;Samples;Min_cycle;Max_cycle;Signal;HPM_P1;HPM_P2
2022/03/06 00:02:51;;;;;;;24.30;15.40;;;;;;;;;;4971577;28;20042;-68
2022/03/06 00:05:56;;;;;;;30.50;18.60;;;;;;;;;;4971060;28;20050;-69
2022/03/06 00:09:00;;;;;;;29.55;18.85;;;;;;;;;;4971548;28;20049;-69
2022/03/06 00:12:04;;;;;;;27.92;18.48;;;;;;;;;;4971577;28;20395;-69
2022/03/06 00:15:09;;;;;;;26.02;17.88;;;;;;;;;;4971210;28;20058;-69
2022/03/06 00:18:13;;;;;;;23.15;16.50;;;;;;;;;;4971420;28;20050;-68
2022/03/06 00:21:17;;;;;;;25.80;16.60;;;;;;;;;;4971453;28;20046;-68
2022/03/06 00:24:21;;;;;;;27.13;17.23;;;;;;;;;;4971527;28;20057;-68
2022/03/06 00:27:25;;;;;;;27.08;17.48;;;;;;;;;;4959441;28;20557;-68
2022/03/06 00:30:30;;;;;;;23.85;16.85;;;;;;;;;;4959721;28;20053;-68
2022/03/06 00:33:34;;;;;;;29.13;17.27;;;;;;;;;;4974136;28;20088;-69
2022/03/06 00:36:38;;;;;;;29.25;16.95;;;;;;;;;;4975065;28;20486;-68
2022/03/06 00:39:44;;;;;;;23.45;17.30;;;;;;;;;;4962834;28;20054;-68
2022/03/06 00:42:48;;;;;;;26.77;17.05;;;;;;;;;;4974972;28;20186;-69
2022/03/06 00:45:53;;;;;;;27.20;16.35;;;;;;;;;;4962831;28;20063;-69
2022/03/06 00:48:58;;;;;;;23.10;15.20;;;;;;;;;;4974566;28;20038;-68
2022/03/06 00:52:04;;;;;;;22.75;15.85;;;;;;;;;;4974679;28;20403;-67
2022/03/06 00:55:09;;;;;;;23.73;16.35;;;;;;;;;;4962386;28;20049;-67
2022/03/06 00:58:13;;;;;;;23.98;16.60;;;;;;;;;;4974508;28;20046;-67
2022/03/06 01:01:17;;;;;;;26.30;16.13;;;;;;;;;;4974688;28;20128;-68
2022/03/06 01:04:21;;;;;;;26.35;15.52;;;;;;;;;;4974573;28;20050;-69
2022/03/06 01:07:26;;;;;;;24.25;15.68;;;;;;;;;;4974523;28;20363;-69
2022/03/06 01:10:31;;;;;;;22.25;15.40;;;;;;;;;;4974772;28;20061;-69
2022/03/06 01:13:35;;;;;;;21.65;14.73;;;;;;;;;;4974202;28;20459;-69
2022/03/06 01:16:39;;;;;;;21.80;14.95;;;;;;;;;;4974139;28;20062;-70
2022/03/06 01:19:43;;;;;;;23.83;16.27;;;;;;;;;;4974466;28;20053;-69
2022/03/06 01:22:48;;;;;;;25.98;16.10;;;;;;;;;;4974361;28;20538;-69
2022/03/06 01:25:52;;;;;;;26.45;16.83;;;;;;;;;;4973703;28;20053;-69
2022/03/06 01:28:56;;;;;;;27.50;16.95;;;;;;;;;;4974282;28;20042;-69
2022/03/06 01:32:01;;;;;;;27.30;17.67;;;;;;;;;;4973921;28;20050;-69
2022/03/06 01:35:06;;;;;;;27.40;17.95;;;;;;;;;;4974178;28;20482;-69
2022/03/06 01:38:10;;;;;;;26.15;17.38;;;;;;;;;;4973856;28;20046;-69
2022/03/06 01:41:14;;;;;;;26.95;16.90;;;;;;;;;;4974056;28;20049;-69
2022/03/06 01:44:18;;;;;;;31.77;17.75;;;;;;;;;;4973589;28;20033;-69
2022/03/06 01:47:42;;;;;;;26.27;16.33;;;;;;;;;;4974004;28;20054;-68
2022/03/06 01:50:47;;;;;;;26.65;17.23;;;;;;;;;;4973905;28;20042;-69
2022/03/06 01:53:51;;;;;;;23.77;15.85;;;;;;;;;;4973779;28;20041;-69
2022/03/06 01:56:55;;;;;;;25.45;17.08;;;;;;;;;;4973285;28;20114;-69
2022/03/06 02:00:00;;;;;;;25.88;16.17;;;;;;;;;;4973633;28;20522;-69
2022/03/06 02:03:05;;;;;;;27.73;17.52;;;;;;;;;;4973478;28;20395;-69
2022/03/06 02:06:09;;;;;;;29.70;17.77;;;;;;;;;;4973256;28;20054;-68
2022/03/06 02:09:14;;;;;;;27.95;17.60;;;;;;;;;;4973634;28;20046;-69
2022/03/06 02:12:21;;;;;;;30.35;17.40;;;;;;;;;;4973776;28;20050;-69
2022/03/06 02:15:26;;;;;;;26.02;17.63;;;;;;;;;;4973037;28;20058;-69
2022/03/06 02:18:30;;;;;;;27.02;18.58;;;;;;;;;;4973202;28;20042;-69
2022/03/06 02:21:34;;;;;;;30.33;17.83;;;;;;;;;;4973347;28;20050;-68
2022/03/06 02:24:38;;;;;;;27.45;17.35;;;;;;;;;;4973258;28;20506;-68
2022/03/06 02:27:43;;;;;;;29.35;18.10;;;;;;;;;;4972960;28;20131;-68
2022/03/06 02:30:47;;;;;;;27.38;17.40;;;;;;;;;;4960981;28;20518;-68
2022/03/06 02:33:51;;;;;;;27.40;17.92;;;;;;;;;;4973198;28;20050;-68
2022/03/06 02:36:59;;;;;;;25.73;16.65;;;;;;;;;;4972777;28;20046;-69
2022/03/06 02:40:05;;;;;;;29.58;18.42;;;;;;;;;;4973177;28;20398;-68
2022/03/06 02:43:10;;;;;;;27.35;18.15;;;;;;;;;;4972925;28;20042;-69
2022/03/06 02:46:14;;;;;;;27.23;17.67;;;;;;;;;;4972619;28;20411;-68
2022/03/06 02:49:19;;;;;;;30.70;16.23;;;;;;;;;;4972709;28;20038;-68
2022/03/06 02:52:23;;;;;;;25.15;16.88;;;;;;;;;;4972879;28;20065;-68
2022/03/06 02:55:27;;;;;;;25.75;15.75;;;;;;;;;;4972563;28;20592;-69
2022/03/06 02:58:32;;;;;;;27.52;15.10;;;;;;;;;;4972562;28;20513;-68
2022/03/06 03:01:40;;;;;;;26.02;15.55;;;;;;;;;;4960955;28;20050;-68
2022/03/06 03:04:45;;;;;;;27.73;15.90;;;;;;;;;;4972513;28;20058;-68
2022/03/06 03:07:50;;;;;;;27.08;16.23;;;;;;;;;;4972572;28;20062;-68
2022/03/06 03:10:54;;;;;;;24.63;14.95;;;;;;;;;;4972691;28;20049;-68
2022/03/06 03:13:59;;;;;;;24.00;15.75;;;;;;;;;;4972667;28;20054;-68
2022/03/06 03:17:04;;;;;;;23.40;15.13;;;;;;;;;;4972094;28;20054;-68
2022/03/06 03:20:09;;;;;;;23.90;15.65;;;;;;;;;;4972339;28;20042;-68
2022/03/06 03:23:13;;;;;;;26.70;16.15;;;;;;;;;;4972671;28;20062;-68
2022/03/06 03:26:17;;;;;;;25.00;17.05;;;;;;;;;;4972095;28;20065;-68
2022/03/06 03:29:22;;;;;;;29.17;18.10;;;;;;;;;;4972451;28;20042;-68
2022/03/06 03:32:26;;;;;;;30.73;18.08;;;;;;;;;;4972227;28;20045;-68
2022/03/06 03:35:30;;;;;;;28.73;17.33;;;;;;;;;;4972257;28;20046;-67
2022/03/06 03:38:35;;;;;;;31.77;17.55;;;;;;;;;;4972243;28;20046;-68
2022/03/06 03:41:39;;;;;;;29.00;18.35;;;;;;;;;;4971937;28;20118;-68
2022/03/06 03:44:44;;;;;;;34.20;17.35;;;;;;;;;;4972169;28;20135;-68
2022/03/06 03:47:48;;;;;;;31.20;18.63;;;;;;;;;;4972024;28;20050;-68
2022/03/06 03:50:53;;;;;;;31.48;18.33;;;;;;;;;;4971987;28;20069;-68
2022/03/06 03:53:57;;;;;;;29.05;18.23;;;;;;;;;;4972231;28;20049;-68
2022/03/06 03:57:02;;;;;;;32.60;18.75;;;;;;;;;;4971651;28;20046;-68
2022/03/06 04:00:07;;;;;;;32.28;20.15;;;;;;;;;;4972055;28;20055;-68
2022/03/06 04:03:13;;;;;;;31.58;21.48;;;;;;;;;;4971966;28;20046;-68
2022/03/06 04:06:17;;;;;;;32.72;21.98;;;;;;;;;;4971650;28;20058;-68
2022/03/06 04:09:21;;;;;;;35.17;21.60;;;;;;;;;;4975839;28;20513;-68
2022/03/06 04:12:25;;;;;;;35.25;21.35;;;;;;;;;;4975822;28;20049;-68
2022/03/06 04:15:30;;;;;;;35.08;20.45;;;;;;;;;;4975464;28;20058;-68
2022/03/06 04:18:34;;;;;;;30.42;19.98;;;;;;;;;;4975795;28;20375;-68
2022/03/06 04:21:39;;;;;;;32.17;20.58;;;;;;;;;;4975679;28;20041;-68
2022/03/06 04:24:43;;;;;;;31.52;20.73;;;;;;;;;;4975263;28;20049;-68
2022/03/06 04:27:47;;;;;;;32.60;20.13;;;;;;;;;;4975348;28;20046;-68
2022/03/06 04:30:51;;;;;;;34.20;20.77;;;;;;;;;;4975229;28;20054;-68
2022/03/06 04:33:55;;;;;;;35.65;21.38;;;;;;;;;;4975105;28;20046;-68
2022/03/06 04:37:00;;;;;;;30.88;20.00;;;;;;;;;;4974953;28;20042;-68
2022/03/06 04:40:04;;;;;;;33.28;20.17;;;;;;;;;;4975021;28;20049;-68
2022/03/06 04:43:08;;;;;;;36.47;20.33;;;;;;;;;;4975261;28;20046;-68
2022/03/06 04:46:13;;;;;;;34.85;20.60;;;;;;;;;;4974739;28;20054;-67
2022/03/06 04:49:17;;;;;;;32.15;18.60;;;;;;;;;;4975205;28;20046;-68
2022/03/06 04:52:21;;;;;;;36.60;21.20;;;;;;;;;;4975120;28;20407;-68
2022/03/06 04:55:25;;;;;;;38.10;20.40;;;;;;;;;;4974747;28;20062;-67
2022/03/06 04:58:30;;;;;;;33.30;21.38;;;;;;;;;;4962986;28;20049;-68
2022/03/06 05:01:34;;;;;;;33.97;20.20;;;;;;;;;;4974650;28;20046;-67
2022/03/06 05:04:38;;;;;;;34.70;20.90;;;;;;;;;;4974753;28;20045;-68
2022/03/06 05:07:43;;;;;;;36.83;21.08;;;;;;;;;;4974536;28;20423;-68
2022/03/06 05:10:47;;;;;;;42.47;20.70;;;;;;;;;;4962816;28;20049;-68
2022/03/06 05:13:51;;;;;;;38.75;22.05;;;;;;;;;;4974709;28;20054;-67
2022/03/06 05:16:56;;;;;;;35.63;20.73;;;;;;;;;;4974200;28;20057;-68
2022/03/06 05:20:00;;;;;;;37.28;21.30;;;;;;;;;;4973391;28;20050;-68
2022/03/06 05:23:05;;;;;;;37.90;20.00;;;;;;;;;;4974303;28;20058;-69
2022/03/06 05:26:09;;;;;;;33.33;20.75;;;;;;;;;;4974214;28;20073;-69
2022/03/06 05:29:13;;;;;;;34.40;21.35;;;;;;;;;;4974286;28;20042;-68
2022/03/06 05:32:17;;;;;;;37.97;21.40;;;;;;;;;;4974179;28;20050;-68
2022/03/06 05:35:22;;;;;;;36.45;22.35;;;;;;;;;;4974071;28;20046;-68
2022/03/06 05:38:26;;;;;;;37.35;21.05;;;;;;;;;;4973906;28;20422;-69
2022/03/06 05:41:30;;;;;;;38.60;21.77;;;;;;;;;;4974238;28;20062;-69
2022/03/06 05:44:35;;;;;;;41.72;22.17;;;;;;;;;;4973789;28;20045;-68
2022/03/06 05:47:39;;;;;;;49.00;24.17;;;;;;;;;;4973825;28;20045;-68
2022/03/06 05:50:44;;;;;;;49.08;24.77;;;;;;;;;;4974082;28;20041;-69
2022/03/06 05:53:48;;;;;;;39.50;21.38;;;;;;;;;;4973853;28;20049;-69
2022/03/06 05:56:52;;;;;;;35.63;21.10;;;;;;;;;;4973762;28;20037;-68
2022/03/06 05:59:56;;;;;;;37.00;21.38;;;;;;;;;;4973889;28;20049;-68
2022/03/06 06:03:02;;;;;;;32.50;20.25;;;;;;;;;;4973631;28;20046;-69
2022/03/06 06:06:07;;;;;;;38.15;20.95;;;;;;;;;;4973455;28;20127;-68
2022/03/06 06:09:12;;;;;;;34.90;20.33;;;;;;;;;;4973706;28;20505;-69
2022/03/06 06:12:16;;;;;;;32.67;21.13;;;;;;;;;;4973429;28;20045;-69
2022/03/06 06:15:21;;;;;;;33.78;21.00;;;;;;;;;;4973164;28;20407;-68
2022/03/06 06:18:27;;;;;;;30.75;20.70;;;;;;;;;;4973473;28;20407;-68
2022/03/06 06:21:31;;;;;;;31.50;20.58;;;;;;;;;;4973192;28;20462;-69
2022/03/06 06:24:35;;;;;;;30.27;20.88;;;;;;;;;;4973271;28;20046;-69
2022/03/06 06:27:39;;;;;;;29.50;20.98;;;;;;;;;;4972941;28;20042;-68
2022/03/06 06:30:44;;;;;;;28.10;21.27;;;;;;;;;;4972614;28;20062;-68
2022/03/06 06:33:48;;;;;;;29.77;22.23;;;;;;;;;;4973290;28;20509;-67
2022/03/06 06:36:57;;;;;;;29.25;21.70;;;;;;;;;;4973001;28;20045;-68
2022/03/06 06:40:01;;;;;;;26.33;19.90;;;;;;;;;;4961104;28;20049;-69
2022/03/06 06:43:06;;;;;;;24.33;19.30;;;;;;;;;;4972810;28;20073;-69
2022/03/06 06:46:10;;;;;;;27.23;21.25;;;;;;;;;;4972585;28;20057;-69
2022/03/06 06:49:14;;;;;;;29.50;21.75;;;;;;;;;;4972876;28;20041;-69
2022/03/06 06:52:19;;;;;;;31.27;20.92;;;;;;;;;;4972813;28;20046;-70
2022/03/06 06:55:23;;;;;;;33.28;21.08;;;;;;;;;;4960813;28;20046;-68
2022/03/06 06:58:27;;;;;;;28.55;20.42;;;;;;;;;;4972612;28;20427;-65
2022/03/06 07:01:31;;;;;;;33.60;20.23;;;;;;;;;;4972469;28;20041;-64
2022/03/06 07:04:36;;;;;;;30.85;20.73;;;;;;;;;;4972444;28;20509;-64
2022/03/06 07:07:40;;;;;;;30.60;19.92;;;;;;;;;;4972478;28;20053;-65
2022/03/06 07:10:44;;;;;;;36.03;21.67;;;;;;;;;;4972454;28;20046;-65
2022/03/06 07:13:48;;;;;;;30.17;18.58;;;;;;;;;;4972313;28;20050;-64
2022/03/06 07:16:53;;;;;;;31.45;20.75;;;;;;;;;;4971697;28;20050;-65
2022/03/06 07:19:57;;;;;;;32.72;20.25;;;;;;;;;;4972453;28;20049;-65
2022/03/06 07:23:01;;;;;;;30.88;18.60;;;;;;;;;;4971280;28;20042;-65
2022/03/06 07:26:05;;;;;;;32.97;19.35;;;;;;;;;;4971982;28;20054;-65
2022/03/06 07:29:10;;;;;;;26.55;18.70;;;;;;;;;;4971987;28;20041;-65
2022/03/06 07:32:14;;;;;;;31.52;19.98;;;;;;;;;;4971712;28;20510;-65
2022/03/06 07:35:20;;;;;;;28.13;17.35;;;;;;;;;;4971983;28;20053;-63
2022/03/06 07:38:24;;;;;;;29.13;17.98;;;;;;;;;;4971721;28;20042;-64
2022/03/06 07:41:28;;;;;;;27.38;16.00;;;;;;;;;;4971445;28;20049;-64
2022/03/06 07:44:33;;;;;;;22.15;12.98;;;;;;;;;;4976069;28;20075;-65
2022/03/06 07:47:38;;;;;;;21.58;13.98;;;;;;;;;;4976120;28;20049;-65
2022/03/06 07:50:42;;;;;;;26.25;14.00;;;;;;;;;;4976110;28;20041;-64
2022/03/06 07:53:46;;;;;;;21.83;13.23;;;;;;;;;;4976003;28;20042;-64
2022/03/06 07:56:51;;;;;;;30.40;14.35;;;;;;;;;;4976036;28;20050;-64
2022/03/06 07:59:55;;;;;;;25.10;13.73;;;;;;;;;;4976069;28;20042;-64
2022/03/06 08:03:00;;;;;;;18.92;12.20;;;;;;;;;;4976108;28;20529;-64
2022/03/06 08:06:04;;;;;;;21.63;12.45;;;;;;;;;;4975735;28;20581;-65
2022/03/06 08:09:08;;;;;;;16.67;11.57;;;;;;;;;;4975802;28;20046;-65
2022/03/06 08:12:12;;;;;;;21.17;12.57;;;;;;;;;;4975714;28;20050;-65
2022/03/06 08:15:17;;;;;;;20.05;12.05;;;;;;;;;;4975172;28;20073;-64
2022/03/06 08:18:21;;;;;;;17.05;10.77;;;;;;;;;;4975629;28;20391;-64
2022/03/06 08:21:25;;;;;;;24.48;13.20;;;;;;;;;;4975518;28;20058;-64
2022/03/06 08:24:31;;;;;;;19.38;11.77;;;;;;;;;;4975661;28;20516;-64
2022/03/06 08:27:35;;;;;;;18.02;11.25;;;;;;;;;;4975486;28;20049;-64
2022/03/06 08:30:39;;;;;;;20.67;12.65;;;;;;;;;;4975166;28;20049;-64
2022/03/06 08:33:43;;;;;;;17.73;11.23;;;;;;;;;;4975364;28;20070;-65
2022/03/06 08:36:47;;;;;;;16.92;11.15;;;;;;;;;;4975233;28;20045;-64
2022/03/06 08:39:52;;;;;;;17.67;11.32;;;;;;;;;;4975345;28;20046;-65
2022/03/06 08:42:56;;;;;;;19.55;11.25;;;;;;;;;;4974976;28;20042;-65
2022/03/06 08:46:03;;;;;;;15.38;10.40;;;;;;;;;;4974756;28;20415;-64
2022/03/06 08:49:07;;;;;;;15.98;9.57;;;;;;;;;;4962901;28;20042;-64
2022/03/06 08:52:11;;;;;;;18.10;11.52;;;;;;;;;;4975106;28;20060;-66
2022/03/06 08:55:15;;;;;;;17.25;11.27;;;;;;;;;;4951782;28;20514;-64
2022/03/06 08:58:20;;;;;;;19.27;11.70;;;;;;;;;;4975055;28;20046;-63
2022/03/06 09:01:24;;;;;;;18.60;11.90;;;;;;;;;;4974775;28;20050;-65
2022/03/06 09:04:32;;;;;;;16.60;11.32;;;;;;;;;;4974820;28;20042;-65
2022/03/06 09:07:37;;;;;;;17.00;11.90;;;;;;;;;;4974829;28;20058;-65
2022/03/06 09:10:41;;;;;;;15.25;10.18;;;;;;;;;;4974734;28;20046;-64
2022/03/06 09:13:45;;;;;;;17.50;11.02;;;;;;;;;;4974365;28;20045;-65
2022/03/06 09:16:50;;;;;;;14.57;9.55;;;;;;;;;;4962419;28;20051;-64
2022/03/06 09:19:54;;;;;;;20.25;11.70;;;;;;;;;;4974614;28;20391;-65
2022/03/06 09:22:58;;;;;;;18.40;11.95;;;;;;;;;;4974219;28;20041;-65
2022/03/06 09:26:03;;;;;;;17.38;11.15;;;;;;;;;;4974021;28;20066;-64
2022/03/06 09:29:07;;;;;;;17.92;10.95;;;;;;;;;;4974095;28;20509;-65
2022/03/06 09:32:11;;;;;;;17.45;11.02;;;;;;;;;;4974365;28;20054;-65
2022/03/06 09:35:16;;;;;;;14.35;9.57;;;;;;;;;;4962446;28;20538;-65
2022/03/06 09:38:20;;;;;;;15.35;10.02;;;;;;;;;;4974142;28;20042;-64
2022/03/06 09:41:27;;;;;;;17.50;12.30;;;;;;;;;;4974337;28;20045;-65
2022/03/06 09:44:32;;;;;;;19.25;12.23;;;;;;;;;;4974261;28;20497;-65
2022/03/06 09:47:37;;;;;;;17.15;11.60;;;;;;;;;;4974078;28;20054;-65
2022/03/06 09:50:42;;;;;;;16.42;11.75;;;;;;;;;;4973833;28;20257;-64
2022/03/06 09:53:46;;;;;;;18.90;11.25;;;;;;;;;;4973779;28;20065;-66
2022/03/06 09:56:51;;;;;;;18.40;10.82;;;;;;;;;;4973877;28;20041;-65
2022/03/06 09:59:55;;;;;;;18.40;11.98;;;;;;;;;;4973834;28;20053;-64
2022/03/06 10:03:01;;;;;;;18.38;10.80;;;;;;;;;;4973563;28;20574;-63
2022/03/06 10:06:05;;;;;;;15.10;10.25;;;;;;;;;;4972739;28;20054;-64
2022/03/06 10:09:12;;;;;;;14.55;9.40;;;;;;;;;;4973276;28;20037;-64
2022/03/06 10:12:22;;;;;;;18.98;11.27;;;;;;;;;;4973324;28;20035;-64
2022/03/06 10:15:27;;;;;;;19.90;11.50;;;;;;;;;;4972897;28;20058;-64
2022/03/06 10:18:32;;;;;;;16.98;10.57;;;;;;;;;;4973481;28;20054;-64
2022/03/06 10:21:39;;;;;;;18.15;10.88;;;;;;;;;;4973519;28;20045;-65
2022/03/06 10:24:51;;;;;;;14.38;9.48;;;;;;;;;;4973137;28;20045;-64
2022/03/06 10:27:59;;;;;;;15.75;9.57;;;;;;;;;;4973371;28;20130;-63
2022/03/06 10:31:05;;;;;;;13.70;10.02;;;;;;;;;;4973181;28;20042;-64
2022/03/06 10:34:10;;;;;;;19.92;11.25;;;;;;;;;;4961054;28;20042;-65
2022/03/06 10:37:14;;;;;;;14.68;10.93;;;;;;;;;;4972742;28;20054;-65
2022/03/06 10:40:31;;;;;;;16.35;10.85;;;;;;;;;;4972623;28;20498;-65
2022/03/06 10:43:36;;;;;;;15.75;10.05;;;;;;;;;;4972707;28;20403;-65
2022/03/06 10:46:41;;;;;;;16.30;10.95;;;;;;;;;;4972464;28;20053;-65
2022/03/06 10:50:06;;;;;;;16.95;11.40;;;;;;;;;;4972790;28;20046;-65
2022/03/06 10:53:17;;;;;;;17.77;11.07;;;;;;;;;;4972573;28;20069;-64
2022/03/06 10:56:21;;;;;;;19.35;10.75;;;;;;;;;;4972554;28;20053;-64
2022/03/06 10:59:26;;;;;;;16.77;10.05;;;;;;;;;;4972569;28;20490;-66
2022/03/06 11:02:32;;;;;;;14.70;9.45;;;;;;;;;;4972439;28;20038;-64
2022/03/06 11:05:37;;;;;;;12.07;8.45;;;;;;;;;;4972063;28;20050;-65
2022/03/06 11:08:41;;;;;;;14.32;9.68;;;;;;;;;;4972279;28;20050;-65
2022/03/06 11:11:47;;;;;;;15.52;10.00;;;;;;;;;;4972415;28;20041;-64
2022/03/06 11:14:51;;;;;;;14.88;10.77;;;;;;;;;;4971981;28;20053;-64
2022/03/06 11:17:57;;;;;;;17.35;10.48;;;;;;;;;;4972379;28;20050;-65
2022/03/06 11:21:03;;;;;;;14.50;9.60;;;;;;;;;;4972179;28;20050;-66
2022/03/06 11:24:10;;;;;;;24.10;14.68;;;;;;;;;;4972068;28;20039;-65
2022/03/06 11:27:33;;;;;;;15.32;9.90;;;;;;;;;;4971933;28;20058;-64
2022/03/06 11:30:37;;;;;;;18.08;10.40;;;;;;;;;;4960380;28;20042;-65
2022/03/06 11:33:42;;;;;;;15.63;10.40;;;;;;;;;;4972226;28;20050;-64
2022/03/06 11:36:48;;;;;;;14.90;9.88;;;;;;;;;;4959964;28;20045;-64
2022/03/06 11:39:52;;;;;;;13.80;9.40;;;;;;;;;;4972425;28;20047;-64
2022/03/06 11:42:57;;;;;;;17.45;10.38;;;;;;;;;;4971923;28;20031;-64
2022/03/06 11:46:04;;;;;;;17.80;10.77;;;;;;;;;;4971679;28;20649;-66
2022/03/06 11:49:08;;;;;;;17.63;11.82;;;;;;;;;;4972002;28;20498;-65
2022/03/06 11:52:29;;;;;;;19.15;12.15;;;;;;;;;;4971840;28;20518;-65
2022/03/06 11:55:35;;;;;;;21.38;11.10;;;;;;;;;;4972095;28;20046;-65
2022/03/06 11:58:53;;;;;;;13.35;9.63;;;;;;;;;;4959944;28;20050;-66
2022/03/06 12:01:57;;;;;;;14.95;10.60;;;;;;;;;;4971680;28;20290;-64
2022/03/06 12:05:01;;;;;;;14.27;10.43;;;;;;;;;;4971915;28;20566;-64
2022/03/06 12:08:09;;;;;;;19.48;11.27;;;;;;;;;;4971415;28;20058;-65
2022/03/06 12:11:15;;;;;;;16.17;10.50;;;;;;;;;;4972126;28;20046;-65
2022/03/06 12:14:24;;;;;;;14.55;10.00;;;;;;;;;;4971596;28;20053;-64
2022/03/06 12:17:36;;;;;;;19.70;12.65;;;;;;;;;;4960237;28;20414;-64
2022/03/06 12:20:42;;;;;;;21.65;13.93;;;;;;;;;;4960052;28;20391;-65
2022/03/06 12:23:47;;;;;;;23.15;14.07;;;;;;;;;;4971767;28;20050;-64
2022/03/06 12:26:53;;;;;;;19.15;12.57;;;;;;;;;;4971690;28;20445;-66
2022/03/06 12:29:59;;;;;;;21.00;12.95;;;;;;;;;;4975341;28;20042;-65
2022/03/06 12:33:22;;;;;;;19.67;12.68;;;;;;;;;;4975573;28;20046;-65
2022/03/06 12:36:26;;;;;;;21.17;11.73;;;;;;;;;;4975267;28;20061;-66
2022/03/06 12:39:31;;;;;;;20.42;12.40;;;;;;;;;;4975298;28;20041;-65
2022/03/06 12:42:36;;;;;;;22.95;15.80;;;;;;;;;;4975274;28;20045;-65
2022/03/06 12:45:40;;;;;;;18.17;12.32;;;;;;;;;;4975004;28;20065;-66
2022/03/06 12:48:46;;;;;;;18.70;11.85;;;;;;;;;;4974982;28;20054;-66
2022/03/06 12:51:54;;;;;;;20.70;12.93;;;;;;;;;;4975102;28;20046;-68
2022/03/06 12:55:03;;;;;;;21.55;13.60;;;;;;;;;;4975498;28;20042;-64
2022/03/06 12:58:07;;;;;;;17.40;12.20;;;;;;;;;;4975101;28;20501;-65
2022/03/06 13:01:12;;;;;;;18.92;12.57;;;;;;;;;;4974562;28;20058;-65
2022/03/06 13:04:17;;;;;;;23.13;12.10;;;;;;;;;;4974770;28;20053;-66
2022/03/06 13:07:25;;;;;;;16.98;11.13;;;;;;;;;;4974481;28;20065;-65
2022/03/06 13:10:30;;;;;;;20.65;14.05;;;;;;;;;;4974828;28;20050;-65
2022/03/06 13:13:35;;;;;;;20.63;13.82;;;;;;;;;;4974817;28;20233;-64
2022/03/06 13:16:39;;;;;;;33.15;19.83;;;;;;;;;;4974131;28;20054;-66
2022/03/06 13:19:45;;;;;;;27.27;18.00;;;;;;;;;;4974620;28;20057;-64
2022/03/06 13:22:49;;;;;;;24.58;14.75;;;;;;;;;;4974312;28;20399;-65
2022/03/06 13:25:54;;;;;;;26.13;14.65;;;;;;;;;;4974013;28;20062;-66
2022/03/06 13:28:59;;;;;;;24.17;14.82;;;;;;;;;;4974506;28;20510;-65
2022/03/06 13:32:04;;;;;;;22.85;13.90;;;;;;;;;;4974605;28;20046;-66
2022/03/06 13:35:08;;;;;;;22.05;14.65;;;;;;;;;;4973932;28;20395;-65
2022/03/06 13:38:13;;;;;;;22.38;13.35;;;;;;;;;;4974321;28;20066;-66
2022/03/06 13:41:18;;;;;;;21.77;13.32;;;;;;;;;;4973239;28;20070;-66
2022/03/06 13:44:22;;;;;;;19.00;12.65;;;;;;;;;;4974085;28;20406;-73
2022/03/06 13:47:26;;;;;;;28.70;17.15;;;;;;;;;;4973789;28;20066;-70
2022/03/06 13:50:45;;;;;;;24.42;13.95;;;;;;;;;;4974114;28;20046;-70
2022/03/06 13:53:56;;;;;;;20.50;13.48;;;;;;;;;;4973082;28;20050;-71
2022/03/06 13:57:00;;;;;;;19.17;13.97;;;;;;;;;;4973956;28;20045;-71
2022/03/06 14:00:24;;;;;;;30.98;20.50;;;;;;;;;;4973796;28;20097;-71
2022/03/06 14:03:29;;;;;;;30.63;19.42;;;;;;;;;;4973552;28;20041;-71
2022/03/06 14:06:38;;;;;;;24.92;15.35;;;;;;;;;;4973456;28;20066;-71
2022/03/06 14:09:46;;;;;;;19.58;13.60;;;;;;;;;;4973559;28;20046;-70
2022/03/06 14:12:50;;;;;;;24.73;14.82;;;;;;;;;;4972952;28;20045;-71
2022/03/06 14:15:56;;;;;;;23.02;14.73;;;;;;;;;;4972995;28;20049;-71
2022/03/06 14:19:01;;;;;;;24.08;15.45;;;;;;;;;;4973502;28;20053;-70
2022/03/06 14:22:07;;;;;;;22.88;14.02;;;;;;;;;;4973182;28;20054;-70
2022/03/06 14:25:11;;;;;;;22.05;14.77;;;;;;;;;;4973000;28;20054;-71
2022/03/06 14:28:15;;;;;;;19.10;13.43;;;;;;;;;;4973199;28;20050;-72
2022/03/06 14:31:20;;;;;;;22.05;14.05;;;;;;;;;;4972876;28;20046;-70
2022/03/06 14:34:29;;;;;;;20.13;13.85;;;;;;;;;;4973110;28;20514;-70
2022/03/06 14:37:33;;;;;;;21.60;15.07;;;;;;;;;;4973001;28;20053;-72
2022/03/06 14:40:38;;;;;;;21.15;14.95;;;;;;;;;;4972976;28;20375;-71
2022/03/06 14:43:42;;;;;;;22.38;14.63;;;;;;;;;;4961060;28;20049;-71
2022/03/06 14:46:48;;;;;;;21.88;15.25;;;;;;;;;;4972663;28;20403;-71
2022/03/06 14:49:52;;;;;;;25.15;16.40;;;;;;;;;;4961109;28;20046;-72
2022/03/06 14:52:57;;;;;;;24.35;15.52;;;;;;;;;;4972589;28;20053;-70
2022/03/06 14:56:01;;;;;;;26.48;15.88;;;;;;;;;;4960799;28;20123;-71
2022/03/06 14:59:06;;;;;;;23.55;16.25;;;;;;;;;;4972830;28;20038;-71
2022/03/06 15:02:10;;;;;;;23.58;15.93;;;;;;;;;;4972572;28;20045;-70
2022/03/06 15:05:15;;;;;;;24.63;15.27;;;;;;;;;;4972402;28;20042;-70
2022/03/06 15:08:19;;;;;;;25.75;16.48;;;;;;;;;;4972485;28;20075;-70
2022/03/06 15:11:24;;;;;;;27.98;17.70;;;;;;;;;;4972129;28;20041;-71
2022/03/06 15:14:28;;;;;;;25.50;18.30;;;;;;;;;;4971931;28;20067;-71
2022/03/06 15:17:32;;;;;;;23.63;14.57;;;;;;;;;;4972221;28;20545;-72
2022/03/06 15:20:37;;;;;;;23.17;15.52;;;;;;;;;;4972241;28;20402;-70
2022/03/06 15:23:41;;;;;;;25.25;17.20;;;;;;;;;;4972040;28;20042;-71
2022/03/06 15:26:45;;;;;;;23.80;16.65;;;;;;;;;;4959764;28;20049;-71
2022/03/06 15:29:50;;;;;;;24.45;15.38;;;;;;;;;;4972255;28;20422;-71
2022/03/06 15:32:54;;;;;;;24.23;14.77;;;;;;;;;;4960215;28;20050;-72
2022/03/06 15:35:59;;;;;;;22.52;15.07;;;;;;;;;;4960232;28;20050;-71
2022/03/06 15:39:03;;;;;;;23.98;14.93;;;;;;;;;;4971974;28;20069;-71
2022/03/06 15:42:07;;;;;;;22.77;15.13;;;;;;;;;;4971940;28;20042;-71
2022/03/06 15:45:12;;;;;;;23.65;14.70;;;;;;;;;;4960219;28;20053;-71
2022/03/06 15:48:18;;;;;;;22.80;15.60;;;;;;;;;;4971912;28;20062;-71
2022/03/06 15:51:22;;;;;;;25.25;16.63;;;;;;;;;;4971986;28;20555;-72
2022/03/06 15:54:28;;;;;;;24.17;16.92;;;;;;;;;;4971816;28;20077;-71
2022/03/06 15:57:32;;;;;;;23.42;15.80;;;;;;;;;;4972102;28;20049;-71
2022/03/06 16:00:37;;;;;;;23.80;15.02;;;;;;;;;;4960148;28;20396;-70
2022/03/06 16:03:41;;;;;;;27.25;15.45;;;;;;;;;;4973240;28;20049;-70
2022/03/06 16:06:46;;;;;;;24.23;15.10;;;;;;;;;;4975767;28;20057;-71
2022/03/06 16:09:57;;;;;;;19.15;13.95;;;;;;;;;;4975575;28;20041;-70
2022/03/06 16:13:03;;;;;;;20.83;14.68;;;;;;;;;;4975602;28;20050;-71
2022/03/06 16:16:07;;;;;;;24.95;15.73;;;;;;;;;;4975147;28;20539;-70
2022/03/06 16:19:11;;;;;;;28.23;18.38;;;;;;;;;;4975423;28;20514;-71
2022/03/06 16:22:16;;;;;;;24.90;15.13;;;;;;;;;;4975148;28;20042;-71
2022/03/06 16:25:20;;;;;;;22.02;13.63;;;;;;;;;;4975350;28;20057;-71
2022/03/06 16:28:25;;;;;;;19.73;14.02;;;;;;;;;;4975453;28;20078;-71
2022/03/06 16:31:29;;;;;;;24.67;15.65;;;;;;;;;;4962962;28;20057;-71
2022/03/06 16:34:37;;;;;;;25.10;15.70;;;;;;;;;;4974798;28;20045;-70
2022/03/06 16:37:41;;;;;;;26.45;16.17;;;;;;;;;;4974689;28;20042;-71
2022/03/06 16:40:47;;;;;;;25.15;16.20;;;;;;;;;;4974759;28;20053;-72
2022/03/06 16:43:51;;;;;;;24.38;16.73;;;;;;;;;;4975221;28;20062;-71
2022/03/06 16:46:56;;;;;;;28.85;15.15;;;;;;;;;;4974844;28;20054;-71
2022/03/06 16:50:01;;;;;;;19.63;14.23;;;;;;;;;;4975082;28;20042;-70
2022/03/06 16:53:06;;;;;;;24.33;14.05;;;;;;;;;;4974881;28;20049;-70
2022/03/06 16:56:12;;;;;;;19.90;14.50;;;;;;;;;;4962503;28;20046;-71
2022/03/06 16:59:16;;;;;;;27.10;15.23;;;;;;;;;;4974577;28;20498;-71
2022/03/06 17:02:21;;;;;;;22.83;14.00;;;;;;;;;;4974291;28;20450;-71
2022/03/06 17:05:26;;;;;;;20.45;13.77;;;;;;;;;;4974411;28;20402;-69
2022/03/06 17:08:30;;;;;;;19.75;13.80;;;;;;;;;;4974353;28;20533;-69
2022/03/06 17:11:34;;;;;;;25.55;16.77;;;;;;;;;;4974099;28;20041;-70
2022/03/06 17:14:38;;;;;;;26.10;16.63;;;;;;;;;;4961839;28;20050;-70
2022/03/06 17:17:43;;;;;;;26.10;16.50;;;;;;;;;;4974331;28;20514;-70
2022/03/06 17:20:48;;;;;;;25.80;17.13;;;;;;;;;;4974025;28;20066;-70
2022/03/06 17:23:52;;;;;;;26.60;17.63;;;;;;;;;;4974071;28;20517;-70
2022/03/06 17:26:57;;;;;;;29.73;18.20;;;;;;;;;;4961648;28;20058;-70
2022/03/06 17:30:01;;;;;;;29.83;20.00;;;;;;;;;;4961812;28;20041;-69
2022/03/06 17:33:06;;;;;;;31.70;20.65;;;;;;;;;;4974185;28;20053;-70
2022/03/06 17:36:10;;;;;;;42.00;22.63;;;;;;;;;;4973534;28;20042;-71
2022/03/06 17:39:14;;;;;;;37.53;23.08;;;;;;;;;;4961792;28;20070;-70
2022/03/06 17:42:18;;;;;;;34.38;21.25;;;;;;;;;;4974111;28;20123;-70
2022/03/06 17:45:23;;;;;;;34.70;21.60;;;;;;;;;;4973372;28;20041;-71
2022/03/06 17:48:28;;;;;;;35.58;21.27;;;;;;;;;;4973587;28;20053;-70
2022/03/06 17:51:33;;;;;;;47.45;29.58;;;;;;;;;;4973600;28;20041;-71
2022/03/06 17:54:37;;;;;;;36.63;23.90;;;;;;;;;;4973496;28;20057;-71
2022/03/06 17:57:42;;;;;;;33.53;20.77;;;;;;;;;;4973565;28;20057;-71
2022/03/06 18:00:47;;;;;;;38.63;23.50;;;;;;;;;;4961892;28;20115;-71